Terminal Aerodrome Forecast
Issued by NWS St Louis, MO

Home | Current Version | Previous Version | Text Only | Print | Product List | Glossary On
Versions: 1 2 3 4 5 6 7 8 9 10 11 12 13 14 15 16 17 18 19 20 21 22 23 24
000
FTUS43 KLSX 241100
TAFCOU
TAF
KCOU 241126Z 2412/2512 10007KT P6SM OVC050
     FM241600 14014G20KT P6SM OVC040
     FM242100 14012KT P6SM OVC025
     FM250300 14012KT 6SM -SHRA VCTS OVC015CB
     FM250800 17010KT 6SM BR OVC010=

USA.gov is the U.S. government's official web portal to all federal, state and local government web resources and services.